Startpagina
METAR-TAF:

METAR-TAF

Vliegvelden :

Kunming, China

Internationale luchthaven Kunming Changshui

breedte: 25-01N, lengte: 102-41E, hoogte: 1892 m

Actueel weer

Dit bericht is 20 minuten geleden gemaakt, om 07:00 UTC
Wind 10 kt uit het zuidwesten met uitschieters tot 23 kt, variërend tussen het zuiden en het westen
Temperatuur 26°C
Vochtigheid 45%
Druk 1018 hPa
Zicht 10 km of meer
Gebroken wolken op 2300 ft

METAR: ZPPP 300700Z 22005G12MPS 190V260 9999 BKN023 26/13 Q1018 NOSIG

Tijdstip: 15:20 (07:20 UTC)

Verwachting

Dit bericht is 6 uur en het 7 minuten geleden gemaakt, om 01:13 UTC
Verwachting geldig van 30 om 06 UTC tot 31 om 06 UTC
Wind 14 kt uit het zuidwesten
Zicht 10 km of meer
Verspreide wolken op 2300 ft
Gebroken wolken op 4000 ft

TAF: ZPPP 300113Z 3006/3106 22007MPS 9999 SCT023 BKN040 TX27/3008Z TN15/3023Z

Waarnemingen en weersverwachtingen van meer dan 4000 vliegvelden (METAR en TAF).

De beschikbare stations zijn de gele en rode punten op de kaart.

Ga met uw muis naar het station om de naam te zien.

Klik dan om waarnemingen en weersverwachtingen te zien.

kaart wijzigen: klik op de groene knoppen met een zwart kruis om in te zoomen, op de groene knop met een streepje om uit te zoomen of op de groene pijlen voor aangrenzende kaarten.


METAR-TAF: